Time;durP1;ratioP1;P1;durP2;ratioP2;P2;SDS_P1;SDS_P2;PMS_P1;PMS_P2;Temp;Humidity;BMP_temperature;BMP_pressure;BME280_temperature;BME280_humidity;BME280_pressure;Samples;Min_cycle;Max_cycle;Signal;HPM_P1;HPM_P2
2022/03/11 00:01:31;;;;;;;34.13;11.53;;;;;;;;;;5018640;28;20489;-76
2022/03/11 00:04:00;;;;;;;30.43;11.83;;;;;;;;;;5020243;28;21071;-76
2022/03/11 00:06:27;;;;;;;26.63;11.87;;;;;;;;;;5016762;28;20556;-76
2022/03/11 00:08:54;;;;;;;28.77;10.50;;;;;;;;;;5017721;28;21063;-76
2022/03/11 00:11:22;;;;;;;23.60;9.70;;;;;;;;;;5018707;28;20807;-76
2022/03/11 00:13:49;;;;;;;30.20;10.70;;;;;;;;;;5024558;28;20474;-76
2022/03/11 00:16:16;;;;;;;31.60;11.30;;;;;;;;;;5017597;28;20465;-77
2022/03/11 00:18:43;;;;;;;26.23;10.63;;;;;;;;;;5022617;28;21016;-74
2022/03/11 00:21:12;;;;;;;26.07;10.80;;;;;;;;;;5017578;28;20482;-76
2022/03/11 00:23:40;;;;;;;28.47;10.70;;;;;;;;;;5020406;28;20487;-76
2022/03/11 00:26:07;;;;;;;31.17;11.33;;;;;;;;;;5012897;28;20463;-75
2022/03/11 00:28:34;;;;;;;25.40;10.63;;;;;;;;;;5019471;28;20451;-77
2022/03/11 00:31:02;;;;;;;27.60;10.00;;;;;;;;;;5016962;28;20472;-75
2022/03/11 00:33:29;;;;;;;22.23;9.43;;;;;;;;;;5018261;28;20566;-77
2022/03/11 00:35:56;;;;;;;29.03;10.43;;;;;;;;;;5015471;28;20486;-75
2022/03/11 00:38:25;;;;;;;26.83;9.57;;;;;;;;;;5018701;28;20463;-76
2022/03/11 00:40:56;;;;;;;27.53;9.83;;;;;;;;;;5018884;28;20478;-76
2022/03/11 00:43:23;;;;;;;25.53;10.67;;;;;;;;;;5019360;28;20489;-77
2022/03/11 00:45:50;;;;;;;25.00;10.10;;;;;;;;;;5019820;28;20952;-76
2022/03/11 00:48:17;;;;;;;25.80;10.23;;;;;;;;;;5017552;28;20930;-76
2022/03/11 00:50:44;;;;;;;26.80;9.83;;;;;;;;;;5020268;28;20466;-76
2022/03/11 00:53:11;;;;;;;23.77;9.33;;;;;;;;;;5019431;28;20513;-76
2022/03/11 00:55:40;;;;;;;27.13;10.53;;;;;;;;;;5020552;28;20553;-76
2022/03/11 00:58:07;;;;;;;24.10;9.60;;;;;;;;;;5022644;28;20465;-76
2022/03/11 01:00:34;;;;;;;27.40;9.83;;;;;;;;;;5021311;28;20488;-76
2022/03/11 01:03:02;;;;;;;24.77;9.80;;;;;;;;;;5020455;28;20941;-76
2022/03/11 01:05:29;;;;;;;25.63;10.23;;;;;;;;;;5018669;28;20467;-76
2022/03/11 01:07:56;;;;;;;23.77;9.43;;;;;;;;;;5019534;28;20467;-76
2022/03/11 01:10:24;;;;;;;24.90;10.47;;;;;;;;;;5022452;28;20451;-76
2022/03/11 01:12:52;;;;;;;23.33;9.60;;;;;;;;;;5025718;28;20467;-76
2022/03/11 01:15:20;;;;;;;27.47;9.80;;;;;;;;;;5024192;28;20472;-76
2022/03/11 01:17:47;;;;;;;23.60;9.83;;;;;;;;;;5021839;28;20485;-77
2022/03/11 01:20:17;;;;;;;22.37;9.10;;;;;;;;;;5025068;28;20914;-77
2022/03/11 01:22:44;;;;;;;24.57;9.30;;;;;;;;;;5024716;28;20486;-77
2022/03/11 01:25:11;;;;;;;28.30;9.80;;;;;;;;;;5022960;28;20465;-77
2022/03/11 01:27:39;;;;;;;25.30;10.73;;;;;;;;;;5022827;28;20551;-77
2022/03/11 01:30:09;;;;;;;26.23;9.60;;;;;;;;;;5021828;28;20458;-77
2022/03/11 01:32:36;;;;;;;24.40;9.23;;;;;;;;;;5022957;28;20454;-77
2022/03/11 01:35:04;;;;;;;24.30;9.53;;;;;;;;;;5019357;28;20489;-77
2022/03/11 01:37:31;;;;;;;26.40;10.07;;;;;;;;;;5021273;28;20561;-77
2022/03/11 01:39:58;;;;;;;24.23;9.77;;;;;;;;;;5018302;28;20557;-76
2022/03/11 01:42:25;;;;;;;32.03;10.00;;;;;;;;;;5019246;28;20481;-77
2022/03/11 01:44:53;;;;;;;25.00;9.57;;;;;;;;;;5019955;28;20878;-76
2022/03/11 01:47:21;;;;;;;26.60;10.53;;;;;;;;;;5021956;28;20454;-76
2022/03/11 01:49:49;;;;;;;28.87;10.37;;;;;;;;;;5020860;28;20844;-76
2022/03/11 01:52:16;;;;;;;22.57;9.57;;;;;;;;;;5018055;28;20480;-77
2022/03/11 01:54:43;;;;;;;30.13;9.47;;;;;;;;;;5020428;28;20977;-76
2022/03/11 01:57:11;;;;;;;25.90;9.70;;;;;;;;;;5018530;28;20469;-76
2022/03/11 01:59:38;;;;;;;30.77;9.93;;;;;;;;;;5021468;28;20565;-76
2022/03/11 02:02:06;;;;;;;24.67;9.50;;;;;;;;;;5017715;28;20860;-76
2022/03/11 02:04:34;;;;;;;26.03;9.97;;;;;;;;;;5016710;28;20992;-76
2022/03/11 02:07:02;;;;;;;22.73;8.43;;;;;;;;;;5022634;28;20451;-76
2022/03/11 02:09:29;;;;;;;26.70;9.00;;;;;;;;;;5018718;28;20548;-76
2022/03/11 02:11:56;;;;;;;23.07;9.47;;;;;;;;;;5015825;28;20474;-76
2022/03/11 02:14:23;;;;;;;23.13;9.30;;;;;;;;;;5019095;28;20573;-76
2022/03/11 02:16:50;;;;;;;29.13;9.33;;;;;;;;;;5021432;28;21008;-76
2022/03/11 02:19:17;;;;;;;23.53;8.93;;;;;;;;;;5016221;28;20998;-76
2022/03/11 02:21:47;;;;;;;22.30;8.77;;;;;;;;;;5020341;28;20913;-76
2022/03/11 02:24:16;;;;;;;25.77;8.87;;;;;;;;;;5017420;28;20470;-77
2022/03/11 02:26:43;;;;;;;22.77;8.93;;;;;;;;;;5021585;28;20491;-77
2022/03/11 02:29:11;;;;;;;22.23;8.63;;;;;;;;;;5019590;28;20481;-77
2022/03/11 02:31:38;;;;;;;24.33;9.77;;;;;;;;;;5018532;28;20473;-77
2022/03/11 02:34:05;;;;;;;23.07;9.07;;;;;;;;;;5016202;28;20561;-77
2022/03/11 02:36:33;;;;;;;23.13;8.97;;;;;;;;;;5018804;28;20919;-76
2022/03/11 02:39:00;;;;;;;25.03;8.57;;;;;;;;;;5018118;28;20545;-77
2022/03/11 02:41:28;;;;;;;25.50;9.30;;;;;;;;;;5019027;28;20586;-77
2022/03/11 02:43:56;;;;;;;25.33;9.23;;;;;;;;;;5021824;28;20491;-77
2022/03/11 02:46:23;;;;;;;23.40;8.90;;;;;;;;;;5018524;28;20565;-77
2022/03/11 02:48:50;;;;;;;24.83;9.37;;;;;;;;;;5021938;28;20825;-76
2022/03/11 02:51:17;;;;;;;23.70;9.30;;;;;;;;;;5020859;28;20458;-77
2022/03/11 02:53:44;;;;;;;25.23;9.77;;;;;;;;;;5019736;28;20482;-76
2022/03/11 02:56:12;;;;;;;27.87;9.73;;;;;;;;;;5017482;28;20976;-76
2022/03/11 02:58:40;;;;;;;23.77;9.33;;;;;;;;;;5020954;28;20514;-76
2022/03/11 03:01:08;;;;;;;29.07;8.97;;;;;;;;;;5020816;28;20907;-76
2022/03/11 03:03:35;;;;;;;29.13;10.93;;;;;;;;;;5018462;28;20546;-76
2022/03/11 03:06:02;;;;;;;29.73;10.87;;;;;;;;;;5025335;28;20565;-77
2022/03/11 03:08:29;;;;;;;32.40;10.70;;;;;;;;;;5021454;28;20454;-77
2022/03/11 03:10:56;;;;;;;30.13;11.17;;;;;;;;;;5018971;28;20476;-77
2022/03/11 03:13:23;;;;;;;29.00;11.20;;;;;;;;;;5018748;28;20486;-76
2022/03/11 03:15:52;;;;;;;27.97;10.87;;;;;;;;;;5017799;28;20454;-77
2022/03/11 03:18:19;;;;;;;31.83;11.60;;;;;;;;;;5016558;28;20454;-76
2022/03/11 03:20:46;;;;;;;31.83;12.20;;;;;;;;;;5018752;28;20525;-77
2022/03/11 03:23:13;;;;;;;30.83;10.97;;;;;;;;;;5023141;28;20565;-77
2022/03/11 03:25:41;;;;;;;25.47;10.53;;;;;;;;;;5022749;28;20451;-78
2022/03/11 03:28:08;;;;;;;29.27;11.43;;;;;;;;;;5025363;28;21019;-77
2022/03/11 03:30:36;;;;;;;30.60;12.40;;;;;;;;;;5030850;28;20519;-77
2022/03/11 03:33:04;;;;;;;32.03;11.40;;;;;;;;;;5023311;28;20491;-78
2022/03/11 03:35:31;;;;;;;27.00;12.63;;;;;;;;;;5023398;28;20899;-77
2022/03/11 03:38:01;;;;;;;28.87;11.43;;;;;;;;;;5022651;28;20290;-77
2022/03/11 03:40:28;;;;;;;31.80;11.43;;;;;;;;;;5017489;28;20490;-77
2022/03/11 03:43:02;;;;;;;33.30;12.53;;;;;;;;;;5022573;28;20499;-77
2022/03/11 03:45:30;;;;;;;26.33;11.50;;;;;;;;;;5020672;28;20267;-77
2022/03/11 03:47:58;;;;;;;34.53;11.93;;;;;;;;;;5023029;28;20952;-77
2022/03/11 03:50:27;;;;;;;30.03;11.63;;;;;;;;;;5017593;28;20510;-77
2022/03/11 03:52:54;;;;;;;30.27;12.97;;;;;;;;;;5020106;28;20231;-77
2022/03/11 03:55:21;;;;;;;31.70;11.80;;;;;;;;;;5019273;28;20218;-77
2022/03/11 03:57:48;;;;;;;33.13;13.87;;;;;;;;;;5015410;28;20468;-77
2022/03/11 04:00:16;;;;;;;34.10;12.70;;;;;;;;;;5021520;28;20821;-77
2022/03/11 04:02:46;;;;;;;28.53;11.60;;;;;;;;;;5017344;28;20610;-77
2022/03/11 04:05:14;;;;;;;40.00;13.33;;;;;;;;;;5027167;28;20264;-77
2022/03/11 04:07:43;;;;;;;27.87;12.70;;;;;;;;;;5019651;28;20210;-77
2022/03/11 04:10:10;;;;;;;29.20;12.30;;;;;;;;;;5020719;28;20212;-76
2022/03/11 04:12:38;;;;;;;36.77;14.00;;;;;;;;;;5017050;28;20219;-76
2022/03/11 04:15:05;;;;;;;33.83;13.27;;;;;;;;;;5019847;28;20568;-77
2022/03/11 04:17:32;;;;;;;28.90;12.43;;;;;;;;;;5022675;28;20206;-75
2022/03/11 04:20:01;;;;;;;36.57;13.07;;;;;;;;;;5020896;28;20211;-77
2022/03/11 04:22:28;;;;;;;28.40;12.07;;;;;;;;;;5018513;28;20220;-76
2022/03/11 04:24:56;;;;;;;29.73;12.80;;;;;;;;;;5017910;28;20212;-75
2022/03/11 04:27:23;;;;;;;30.43;12.63;;;;;;;;;;5021007;28;20211;-78
2022/03/11 04:29:50;;;;;;;37.37;13.97;;;;;;;;;;5021687;28;20287;-76
2022/03/11 04:32:18;;;;;;;34.37;13.73;;;;;;;;;;5015212;28;20204;-77
2022/03/11 04:34:45;;;;;;;34.53;14.17;;;;;;;;;;5018785;28;20661;-77
2022/03/11 04:37:12;;;;;;;30.87;13.10;;;;;;;;;;5015848;28;20196;-78
2022/03/11 04:39:39;;;;;;;31.47;13.73;;;;;;;;;;5018958;28;20200;-77
2022/03/11 04:42:09;;;;;;;33.23;13.17;;;;;;;;;;5014591;28;20262;-77
2022/03/11 04:44:36;;;;;;;37.20;13.27;;;;;;;;;;5014759;28;20220;-77
2022/03/11 04:47:04;;;;;;;35.33;15.03;;;;;;;;;;5015079;28;20583;-77
2022/03/11 04:49:31;;;;;;;34.07;14.90;;;;;;;;;;5025211;28;20217;-77
2022/03/11 04:51:58;;;;;;;33.13;13.20;;;;;;;;;;5018174;28;20211;-78
2022/03/11 04:54:25;;;;;;;34.43;13.93;;;;;;;;;;5017956;28;20232;-77
2022/03/11 04:56:53;;;;;;;40.00;14.07;;;;;;;;;;5017909;28;20295;-79
2022/03/11 04:59:21;;;;;;;37.80;15.37;;;;;;;;;;5019332;28;20622;-77
2022/03/11 05:01:48;;;;;;;31.60;13.73;;;;;;;;;;5019237;28;20306;-78
2022/03/11 05:04:15;;;;;;;32.23;14.13;;;;;;;;;;5017850;28;20223;-77
2022/03/11 05:06:42;;;;;;;34.07;13.80;;;;;;;;;;5015046;28;20200;-76
2022/03/11 05:09:10;;;;;;;36.27;14.13;;;;;;;;;;5018362;28;20677;-77
2022/03/11 05:11:37;;;;;;;37.97;15.40;;;;;;;;;;5019928;28;20200;-77
2022/03/11 05:14:04;;;;;;;37.93;14.93;;;;;;;;;;5018427;28;20232;-78
2022/03/11 05:16:33;;;;;;;38.10;14.60;;;;;;;;;;5016973;28;20204;-77
2022/03/11 05:19:00;;;;;;;37.30;14.93;;;;;;;;;;5015617;28;20361;-77
2022/03/11 05:21:27;;;;;;;37.57;15.03;;;;;;;;;;5019225;28;20208;-77
2022/03/11 05:23:55;;;;;;;35.27;14.90;;;;;;;;;;5019280;28;20279;-76
2022/03/11 05:26:29;;;;;;;37.37;15.10;;;;;;;;;;5020913;28;20210;-77
2022/03/11 05:28:57;;;;;;;35.00;14.40;;;;;;;;;;5017925;28;20208;-77
2022/03/11 05:31:26;;;;;;;36.43;14.63;;;;;;;;;;5022459;28;20212;-77
2022/03/11 05:33:55;;;;;;;38.83;15.13;;;;;;;;;;5019938;28;20235;-77
2022/03/11 05:36:22;;;;;;;33.40;14.40;;;;;;;;;;5019974;28;20215;-77
2022/03/11 05:38:49;;;;;;;36.37;14.60;;;;;;;;;;5020972;28;20250;-77
2022/03/11 05:41:17;;;;;;;35.17;15.23;;;;;;;;;;5027040;28;20634;-77
2022/03/11 05:43:44;;;;;;;38.57;15.13;;;;;;;;;;5028185;28;20308;-77
2022/03/11 05:46:11;;;;;;;37.13;15.40;;;;;;;;;;5033991;28;20290;-77
2022/03/11 05:48:38;;;;;;;34.93;15.07;;;;;;;;;;5034165;28;21207;-77
2022/03/11 05:51:07;;;;;;;37.57;15.10;;;;;;;;;;5029863;28;20204;-77
2022/03/11 05:53:34;;;;;;;39.43;14.73;;;;;;;;;;5021664;28;20224;-77
2022/03/11 05:56:02;;;;;;;44.53;16.80;;;;;;;;;;5020098;28;20216;-77
2022/03/11 05:58:29;;;;;;;36.10;15.20;;;;;;;;;;5024532;28;20200;-77
2022/03/11 06:00:56;;;;;;;35.00;15.50;;;;;;;;;;5021278;28;20200;-77
2022/03/11 06:03:23;;;;;;;39.03;16.03;;;;;;;;;;5021533;28;20709;-77
2022/03/11 06:05:51;;;;;;;42.17;16.03;;;;;;;;;;5023942;28;20322;-77
2022/03/11 06:08:19;;;;;;;39.03;15.33;;;;;;;;;;5020384;28;20284;-77
2022/03/11 06:10:47;;;;;;;41.70;15.07;;;;;;;;;;5023928;28;20200;-77
2022/03/11 06:13:15;;;;;;;40.40;15.00;;;;;;;;;;5018976;28;20705;-76
2022/03/11 06:15:42;;;;;;;36.63;15.37;;;;;;;;;;5020080;28;20204;-77
2022/03/11 06:18:10;;;;;;;36.77;15.17;;;;;;;;;;5019082;28;20212;-77
2022/03/11 06:20:37;;;;;;;44.37;16.03;;;;;;;;;;5019733;28;20581;-76
2022/03/11 06:23:04;;;;;;;41.93;16.00;;;;;;;;;;5033457;28;20596;-77
2022/03/11 06:25:33;;;;;;;37.67;16.20;;;;;;;;;;5024168;28;20581;-77
2022/03/11 06:28:00;;;;;;;36.27;15.03;;;;;;;;;;5020994;28;20269;-79
2022/03/11 06:30:27;;;;;;;35.33;15.30;;;;;;;;;;5022033;28;20212;-78
2022/03/11 06:32:54;;;;;;;38.50;16.67;;;;;;;;;;5021750;28;20528;-79
2022/03/11 06:35:21;;;;;;;31.47;14.70;;;;;;;;;;5026702;28;20684;-79
2022/03/11 06:37:50;;;;;;;39.77;15.00;;;;;;;;;;5016072;28;20534;-79
2022/03/11 06:40:18;;;;;;;37.97;14.33;;;;;;;;;;5022253;28;20275;-80
2022/03/11 06:42:47;;;;;;;37.97;15.23;;;;;;;;;;5022523;28;20688;-78
2022/03/11 06:45:16;;;;;;;35.00;14.77;;;;;;;;;;5022495;28;20226;-80
2022/03/11 06:47:44;;;;;;;38.67;16.30;;;;;;;;;;5021961;28;20200;-80
2022/03/11 06:50:12;;;;;;;36.07;14.73;;;;;;;;;;5021120;28;20314;-79
2022/03/11 06:52:39;;;;;;;33.07;14.80;;;;;;;;;;5024364;28;20231;-80
2022/03/11 06:55:06;;;;;;;43.77;16.53;;;;;;;;;;5022352;28;20195;-80
2022/03/11 06:57:34;;;;;;;35.23;15.03;;;;;;;;;;5024990;28;20287;-79
2022/03/11 07:00:03;;;;;;;36.90;14.97;;;;;;;;;;5022602;28;20295;-79
2022/03/11 07:02:30;;;;;;;35.57;15.10;;;;;;;;;;5025163;28;20224;-80
2022/03/11 07:04:57;;;;;;;43.07;16.40;;;;;;;;;;5018814;28;20247;-79
2022/03/11 07:07:24;;;;;;;34.47;14.60;;;;;;;;;;5022845;28;20208;-80
2022/03/11 07:09:53;;;;;;;36.07;14.10;;;;;;;;;;5022426;28;20232;-79
2022/03/11 07:12:20;;;;;;;35.23;15.63;;;;;;;;;;5020943;28;20231;-80
2022/03/11 07:14:48;;;;;;;34.03;14.27;;;;;;;;;;5019806;28;20232;-79
2022/03/11 07:17:17;;;;;;;37.77;15.17;;;;;;;;;;5023123;28;20278;-79
2022/03/11 07:19:44;;;;;;;34.67;14.23;;;;;;;;;;5020332;28;20215;-79
2022/03/11 07:22:11;;;;;;;30.03;13.27;;;;;;;;;;5025673;28;20550;-77
2022/03/11 07:24:39;;;;;;;35.13;14.23;;;;;;;;;;5020331;28;20215;-79
2022/03/11 07:27:06;;;;;;;32.67;12.93;;;;;;;;;;5022708;28;20211;-79
2022/03/11 07:29:33;;;;;;;31.03;13.80;;;;;;;;;;5019566;28;20200;-79
2022/03/11 07:32:00;;;;;;;31.83;13.97;;;;;;;;;;5017887;28;20531;-79
2022/03/11 07:34:29;;;;;;;33.47;13.73;;;;;;;;;;5023425;28;20663;-78
2022/03/11 07:36:56;;;;;;;31.27;12.70;;;;;;;;;;5020796;28;20291;-79
2022/03/11 07:39:24;;;;;;;29.20;12.83;;;;;;;;;;5017958;28;20607;-80
2022/03/11 07:41:51;;;;;;;27.80;13.50;;;;;;;;;;5023300;28;20294;-80
2022/03/11 07:44:18;;;;;;;31.27;13.13;;;;;;;;;;5021529;28;20766;-80
2022/03/11 07:46:46;;;;;;;33.33;13.97;;;;;;;;;;5021097;28;20627;-79
2022/03/11 07:49:14;;;;;;;29.37;13.37;;;;;;;;;;5021851;28;21152;-79
2022/03/11 07:51:42;;;;;;;25.77;13.33;;;;;;;;;;5019651;28;20678;-78
2022/03/11 07:54:10;;;;;;;29.00;13.40;;;;;;;;;;5021161;28;20220;-79
2022/03/11 07:56:37;;;;;;;27.90;14.10;;;;;;;;;;5018138;28;20290;-77
2022/03/11 07:59:06;;;;;;;26.23;12.60;;;;;;;;;;5022027;28;20695;-80
2022/03/11 08:01:33;;;;;;;29.80;13.60;;;;;;;;;;5024612;28;20223;-79
2022/03/11 08:04:00;;;;;;;24.30;12.37;;;;;;;;;;5020546;28;20223;-79
2022/03/11 08:06:27;;;;;;;33.23;13.17;;;;;;;;;;5016049;28;20213;-77
2022/03/11 08:08:56;;;;;;;30.23;13.07;;;;;;;;;;5022222;28;20212;-78
2022/03/11 08:11:23;;;;;;;26.07;12.73;;;;;;;;;;5012550;28;20483;-76
2022/03/11 08:13:50;;;;;;;26.07;12.83;;;;;;;;;;5006008;28;20235;-76
2022/03/11 08:16:18;;;;;;;27.73;12.50;;;;;;;;;;5016319;28;20214;-79
2022/03/11 08:18:45;;;;;;;24.27;12.30;;;;;;;;;;5023305;28;20211;-77
2022/03/11 08:21:16;;;;;;;23.53;11.97;;;;;;;;;;5016380;28;20208;-77
2022/03/11 08:23:43;;;;;;;24.50;11.80;;;;;;;;;;5012105;28;20232;-77
2022/03/11 08:26:12;;;;;;;25.33;11.53;;;;;;;;;;5017038;28;20658;-78
2022/03/11 08:28:39;;;;;;;21.37;10.80;;;;;;;;;;5014523;28;20208;-77
2022/03/11 08:31:06;;;;;;;22.73;11.63;;;;;;;;;;5016697;28;20199;-77
2022/03/11 08:33:37;;;;;;;23.00;11.57;;;;;;;;;;5019985;28;20219;-78
2022/03/11 08:36:04;;;;;;;20.93;11.30;;;;;;;;;;5026320;28;20632;-77
2022/03/11 08:38:31;;;;;;;22.87;11.67;;;;;;;;;;5020328;28;20666;-78
2022/03/11 08:41:00;;;;;;;21.90;10.70;;;;;;;;;;5022818;28;20247;-77
2022/03/11 08:43:29;;;;;;;27.17;10.43;;;;;;;;;;5017135;28;20258;-77
2022/03/11 08:45:56;;;;;;;24.27;10.70;;;;;;;;;;5017838;28;20218;-78
2022/03/11 08:48:23;;;;;;;22.43;11.03;;;;;;;;;;5015057;28;20295;-76
2022/03/11 08:50:50;;;;;;;19.53;10.60;;;;;;;;;;5014920;28;20200;-78
2022/03/11 08:53:18;;;;;;;19.13;9.40;;;;;;;;;;5018067;28;20219;-77
2022/03/11 08:55:45;;;;;;;25.90;11.03;;;;;;;;;;5012715;28;20662;-78
2022/03/11 08:58:12;;;;;;;25.17;10.87;;;;;;;;;;5012756;28;20211;-78
2022/03/11 09:00:41;;;;;;;20.13;9.97;;;;;;;;;;5018539;28;20200;-77
2022/03/11 09:03:08;;;;;;;23.57;10.97;;;;;;;;;;5016398;28;20597;-76
2022/03/11 09:05:35;;;;;;;20.53;10.93;;;;;;;;;;5021491;28;20584;-78
2022/03/11 09:08:02;;;;;;;22.93;11.30;;;;;;;;;;5019378;28;20573;-76
2022/03/11 09:10:29;;;;;;;24.70;10.47;;;;;;;;;;5016521;28;20258;-76
2022/03/11 09:12:57;;;;;;;25.77;10.67;;;;;;;;;;5020609;28;20233;-78
2022/03/11 09:15:24;;;;;;;22.67;10.87;;;;;;;;;;5020912;28;20306;-76
2022/03/11 09:17:53;;;;;;;22.47;10.13;;;;;;;;;;5022996;28;20207;-76
2022/03/11 09:20:20;;;;;;;21.43;10.17;;;;;;;;;;5017795;28;20204;-76
2022/03/11 09:22:47;;;;;;;22.53;10.83;;;;;;;;;;5017427;28;20220;-75
2022/03/11 09:25:18;;;;;;;20.60;9.83;;;;;;;;;;5022385;28;20302;-76
2022/03/11 09:27:45;;;;;;;27.27;10.60;;;;;;;;;;5015472;28;20210;-76
2022/03/11 09:30:13;;;;;;;21.10;10.07;;;;;;;;;;5019621;28;20294;-75
2022/03/11 09:32:40;;;;;;;22.23;9.73;;;;;;;;;;5015053;28;20307;-75
2022/03/11 09:35:10;;;;;;;23.40;9.93;;;;;;;;;;5017940;28;20204;-76
2022/03/11 09:37:37;;;;;;;19.73;9.67;;;;;;;;;;5019845;28;20293;-75
2022/03/11 09:40:05;;;;;;;21.97;9.63;;;;;;;;;;5021301;28;20204;-76
2022/03/11 09:42:32;;;;;;;26.97;10.07;;;;;;;;;;5023212;28;20199;-76
2022/03/11 09:44:59;;;;;;;25.80;9.93;;;;;;;;;;5019646;28;20231;-76
2022/03/11 09:47:27;;;;;;;28.40;10.20;;;;;;;;;;5026407;28;20207;-75
2022/03/11 09:49:54;;;;;;;20.77;9.57;;;;;;;;;;5025602;28;20302;-79
2022/03/11 09:52:23;;;;;;;24.33;9.47;;;;;;;;;;5021011;28;20320;-77
2022/03/11 09:54:51;;;;;;;25.77;9.60;;;;;;;;;;5022711;28;20232;-77
2022/03/11 09:57:19;;;;;;;21.63;10.50;;;;;;;;;;5019684;28;20267;-77
2022/03/11 09:59:46;;;;;;;21.40;9.17;;;;;;;;;;5020058;28;20199;-78
2022/03/11 10:02:14;;;;;;;19.60;9.03;;;;;;;;;;5017016;28;20200;-76
2022/03/11 10:04:48;;;;;;;17.60;8.77;;;;;;;;;;5019076;28;20671;-76
2022/03/11 10:07:24;;;;;;;24.63;9.70;;;;;;;;;;5017703;28;20570;-76
2022/03/11 10:09:51;;;;;;;20.37;9.97;;;;;;;;;;5023016;28;20733;-77
2022/03/11 10:12:25;;;;;;;21.63;9.47;;;;;;;;;;5017931;28;20205;-79
2022/03/11 10:14:56;;;;;;;21.33;9.37;;;;;;;;;;5020684;28;20652;-75
2022/03/11 10:17:24;;;;;;;21.00;9.20;;;;;;;;;;5015420;28;20214;-76
2022/03/11 10:19:55;;;;;;;23.07;9.57;;;;;;;;;;5025030;28;20300;-79
2022/03/11 10:22:25;;;;;;;22.80;9.60;;;;;;;;;;5019669;28;20219;-76
2022/03/11 10:24:53;;;;;;;21.53;9.47;;;;;;;;;;5022096;28;20223;-76
2022/03/11 10:27:23;;;;;;;22.83;9.20;;;;;;;;;;5023219;28;20681;-78
2022/03/11 10:29:50;;;;;;;20.17;9.03;;;;;;;;;;5025046;28;20266;-78
2022/03/11 10:32:23;;;;;;;17.10;8.37;;;;;;;;;;5014296;28;20222;-77
2022/03/11 10:37:19;;;;;;;17.53;8.70;;;;;;;;;;5016000;28;20227;-76
2022/03/11 10:39:48;;;;;;;21.23;9.33;;;;;;;;;;5017338;28;20208;-75
2022/03/11 10:42:17;;;;;;;20.40;8.77;;;;;;;;;;5019515;28;20203;-78
2022/03/11 10:44:55;;;;;;;20.67;8.80;;;;;;;;;;4997179;28;20227;-77
2022/03/11 10:47:23;;;;;;;21.27;8.93;;;;;;;;;;4991021;28;20299;-76
2022/03/11 10:49:51;;;;;;;21.07;8.97;;;;;;;;;;4998592;28;20299;-77
2022/03/11 10:52:28;;;;;;;19.97;8.30;;;;;;;;;;5001800;28;20204;-77
2022/03/11 10:54:57;;;;;;;20.30;9.33;;;;;;;;;;4997585;28;20690;-77
2022/03/11 10:57:35;;;;;;;18.63;9.13;;;;;;;;;;4999531;28;20228;-77
2022/03/11 11:00:16;;;;;;;22.20;8.90;;;;;;;;;;4997473;28;20267;-77
2022/03/11 11:02:44;;;;;;;19.03;8.37;;;;;;;;;;4997123;28;20226;-77
2022/03/11 11:05:13;;;;;;;22.63;9.20;;;;;;;;;;4999535;28;20231;-77
2022/03/11 11:07:41;;;;;;;16.60;7.87;;;;;;;;;;5007427;28;20208;-77
2022/03/11 11:10:10;;;;;;;21.30;8.97;;;;;;;;;;4995955;28;21225;-77
2022/03/11 11:12:37;;;;;;;18.53;8.63;;;;;;;;;;4997011;28;20278;-77
2022/03/11 11:15:05;;;;;;;18.50;8.77;;;;;;;;;;4999214;28;20208;-77
2022/03/11 11:17:33;;;;;;;21.00;8.57;;;;;;;;;;4997223;28;20214;-77
2022/03/11 11:20:02;;;;;;;19.77;8.53;;;;;;;;;;4996008;28;20208;-76
2022/03/11 11:22:30;;;;;;;18.00;8.97;;;;;;;;;;4994261;28;20204;-76
2022/03/11 11:24:58;;;;;;;16.67;8.03;;;;;;;;;;4994436;28;20224;-76
2022/03/11 11:27:27;;;;;;;21.60;8.40;;;;;;;;;;4998807;28;21282;-76
2022/03/11 11:29:54;;;;;;;19.30;8.40;;;;;;;;;;4990786;28;20208;-76
2022/03/11 11:32:22;;;;;;;19.63;8.80;;;;;;;;;;4989509;28;20215;-76
2022/03/11 11:34:49;;;;;;;23.83;8.73;;;;;;;;;;4996699;28;20662;-77
2022/03/11 11:37:35;;;;;;;18.27;8.80;;;;;;;;;;4991475;28;20568;-76
2022/03/11 11:40:17;;;;;;;20.83;9.03;;;;;;;;;;4992899;28;20217;-76
2022/03/11 11:43:06;;;;;;;20.67;8.63;;;;;;;;;;4996596;28;20750;-76
2022/03/11 11:45:44;;;;;;;17.97;8.70;;;;;;;;;;4983974;28;20228;-76
2022/03/11 11:48:26;;;;;;;17.13;8.87;;;;;;;;;;4995629;28;20211;-77
2022/03/11 11:50:53;;;;;;;24.20;8.33;;;;;;;;;;4994436;28;20207;-76
2022/03/11 11:53:32;;;;;;;15.53;8.07;;;;;;;;;;4990212;28;21011;-76
2022/03/11 11:55:59;;;;;;;18.97;8.03;;;;;;;;;;4994616;28;20231;-76
2022/03/11 11:58:27;;;;;;;15.60;7.43;;;;;;;;;;4997568;28;20207;-76
2022/03/11 12:00:57;;;;;;;18.23;7.97;;;;;;;;;;4997424;28;20629;-76
2022/03/11 12:03:48;;;;;;;21.17;8.90;;;;;;;;;;4995642;28;20678;-76
2022/03/11 12:06:50;;;;;;;20.00;8.40;;;;;;;;;;4996384;28;20205;-76
2022/03/11 12:09:32;;;;;;;15.10;7.47;;;;;;;;;;4992027;28;20294;-76
2022/03/11 12:11:59;;;;;;;17.33;8.17;;;;;;;;;;4998141;28;20215;-76
2022/03/11 12:14:29;;;;;;;18.53;8.10;;;;;;;;;;4999310;28;20220;-75
2022/03/11 12:17:05;;;;;;;18.43;8.10;;;;;;;;;;4997884;28;20208;-75
2022/03/11 12:19:44;;;;;;;19.10;8.63;;;;;;;;;;4998417;28;20207;-76
2022/03/11 12:22:24;;;;;;;17.63;8.40;;;;;;;;;;4997242;28;20209;-76
2022/03/11 12:25:01;;;;;;;19.33;8.40;;;;;;;;;;4997174;28;20315;-76
2022/03/11 12:27:46;;;;;;;16.83;7.57;;;;;;;;;;4996722;28;20196;-76
2022/03/11 12:30:14;;;;;;;21.83;8.00;;;;;;;;;;4998480;28;20200;-75
2022/03/11 12:32:43;;;;;;;16.27;7.97;;;;;;;;;;4993122;28;20307;-79
2022/03/11 12:35:10;;;;;;;16.77;7.93;;;;;;;;;;4993098;28;20301;-76
2022/03/11 12:37:37;;;;;;;16.97;7.80;;;;;;;;;;4995719;28;20240;-78
2022/03/11 12:40:09;;;;;;;17.33;8.27;;;;;;;;;;5004187;28;20282;-75
2022/03/11 12:48:36;;;;;;;22.80;8.10;;;;;;;;;;4980177;28;20212;-78
2022/03/11 12:51:11;;;;;;;21.43;8.50;;;;;;;;;;5001741;28;20608;-78
2022/03/11 12:53:38;;;;;;;17.97;8.27;;;;;;;;;;5009089;28;20622;-76
2022/03/11 12:56:06;;;;;;;16.23;8.13;;;;;;;;;;5000631;28;20224;-76
2022/03/11 12:58:36;;;;;;;18.83;7.50;;;;;;;;;;5002461;28;20215;-75
2022/03/11 13:01:06;;;;;;;15.43;7.87;;;;;;;;;;5004721;28;20212;-75
2022/03/11 13:03:35;;;;;;;15.97;8.10;;;;;;;;;;5002757;28;20270;-76
2022/03/11 13:06:03;;;;;;;24.27;8.17;;;;;;;;;;4999391;28;20235;-77
2022/03/11 13:08:31;;;;;;;15.87;8.43;;;;;;;;;;5001746;28;20212;-77
2022/03/11 13:10:58;;;;;;;21.57;9.23;;;;;;;;;;5005566;28;20215;-78
2022/03/11 13:13:26;;;;;;;16.83;8.30;;;;;;;;;;5004587;28;20307;-78
2022/03/11 13:15:55;;;;;;;17.60;8.50;;;;;;;;;;5000668;28;20227;-77
2022/03/11 13:18:24;;;;;;;18.70;8.53;;;;;;;;;;5006254;28;20692;-78
2022/03/11 13:20:57;;;;;;;21.07;8.30;;;;;;;;;;5005945;28;20466;-78
2022/03/11 13:23:27;;;;;;;22.33;8.63;;;;;;;;;;5013553;28;20595;-77
2022/03/11 13:25:55;;;;;;;19.07;8.60;;;;;;;;;;5001952;28;20239;-77
2022/03/11 13:28:26;;;;;;;18.47;8.33;;;;;;;;;;5002593;28;20283;-77
2022/03/11 13:30:54;;;;;;;20.27;7.87;;;;;;;;;;4998404;28;20296;-76
2022/03/11 13:33:23;;;;;;;16.60;8.73;;;;;;;;;;5006361;28;20692;-77
2022/03/11 13:35:51;;;;;;;18.73;8.23;;;;;;;;;;4999743;28;20228;-77
2022/03/11 13:38:39;;;;;;;15.33;7.80;;;;;;;;;;5000406;28;20662;-77
2022/03/11 13:41:08;;;;;;;18.90;7.70;;;;;;;;;;5000429;28;20212;-78
2022/03/11 13:43:36;;;;;;;16.73;7.67;;;;;;;;;;5000897;28;20220;-77
2022/03/11 13:46:03;;;;;;;28.13;8.70;;;;;;;;;;4999288;28;20302;-77
2022/03/11 13:48:31;;;;;;;17.53;8.23;;;;;;;;;;5000629;28;20219;-77
2022/03/11 13:51:07;;;;;;;15.40;7.43;;;;;;;;;;4995241;28;20209;-77
2022/03/11 13:53:35;;;;;;;16.70;8.53;;;;;;;;;;4994594;28;20226;-77
2022/03/11 13:56:15;;;;;;;18.37;8.20;;;;;;;;;;4993051;28;20205;-77
2022/03/11 13:58:43;;;;;;;19.23;8.23;;;;;;;;;;5000607;28;20246;-78
2022/03/11 14:01:12;;;;;;;15.43;7.40;;;;;;;;;;4999215;28;20308;-78
2022/03/11 14:03:46;;;;;;;15.40;7.43;;;;;;;;;;5000429;28;20248;-77
2022/03/11 14:06:13;;;;;;;17.60;7.73;;;;;;;;;;4999680;28;20216;-77
2022/03/11 14:08:40;;;;;;;15.47;7.33;;;;;;;;;;4997237;28;20205;-77
2022/03/11 14:11:08;;;;;;;20.73;8.00;;;;;;;;;;4999419;28;20204;-77
2022/03/11 14:13:36;;;;;;;16.90;8.00;;;;;;;;;;4994751;28;20255;-77
2022/03/11 14:16:10;;;;;;;18.53;7.70;;;;;;;;;;4995246;28;20267;-79
2022/03/11 14:18:38;;;;;;;16.67;7.50;;;;;;;;;;5007657;28;20205;-78
2022/03/11 14:21:06;;;;;;;14.80;7.63;;;;;;;;;;5015337;28;20227;-77
2022/03/11 14:23:34;;;;;;;20.07;7.80;;;;;;;;;;5009510;28;20224;-77
2022/03/11 14:26:01;;;;;;;17.47;7.83;;;;;;;;;;4997728;28;20235;-77
2022/03/11 14:28:28;;;;;;;15.23;7.50;;;;;;;;;;4996492;28;20244;-76
2022/03/11 14:30:56;;;;;;;14.47;7.53;;;;;;;;;;5001502;28;20690;-77
2022/03/11 14:33:27;;;;;;;16.93;8.30;;;;;;;;;;4993006;28;20224;-76
2022/03/11 14:35:54;;;;;;;17.87;8.13;;;;;;;;;;5001914;28;20250;-77
2022/03/11 14:38:22;;;;;;;15.53;7.97;;;;;;;;;;4993343;28;20307;-78
2022/03/11 14:40:49;;;;;;;15.47;7.80;;;;;;;;;;4996240;28;20291;-76